Terminal Aerodrome Forecast
Issued by NWS Newport/Morehead City, NC

Home | Current Version | Previous Version | Text Only | Print | Product List | Glossary On
Versions: 1 2 3 4 5 6 7 8 9 10 11 12 13 14 15 16 17 18 19 20 21 22 23
000
FTUS42 KMHX 241100
TAFEWN
TAF
KEWN 241121Z 2412/2512 21007KT 3SM -RA BR BKN007 BKN025 OVC040
     FM241500 20015G20KT P6SM VCSH SCT007 BKN025
     FM242300 19008KT 5SM BR OVC010
     FM250600 21004KT 3SM BR OVC005=

USA.gov is the U.S. government's official web portal to all federal, state and local government web resources and services.